createdAt,value
2023-01-09T00:00:12.101Z,100773.08
2023-01-09T00:02:32.680Z,100772.52
2023-01-09T00:03:35.415Z,100773.08
2023-01-09T00:04:37.775Z,100775.76
2023-01-09T00:05:40.058Z,100783.78
2023-01-09T00:06:44.181Z,100768.66
2023-01-09T00:07:46.925Z,100762.37
2023-01-09T00:08:49.276Z,100763.27
2023-01-09T00:09:51.571Z,100770.41
2023-01-09T00:10:54.170Z,100768.61
2023-01-09T00:11:56.982Z,100764.11
2023-01-09T00:12:59.341Z,100759.70
2023-01-09T00:14:01.551Z,100764.11
2023-01-09T00:15:05.506Z,100759.70
2023-01-09T00:16:10.079Z,100757.02
2023-01-09T00:17:12.486Z,100756.17
2023-01-09T00:18:15.247Z,100755.23
2023-01-09T00:19:18.261Z,100764.20
2023-01-09T00:20:21.573Z,100764.20
2023-01-09T00:21:25.225Z,100758.84
2023-01-09T00:22:27.655Z,100770.41
2023-01-09T00:23:30.063Z,100761.52
2023-01-09T00:24:32.796Z,100763.31
2023-01-09T00:25:36.869Z,100770.41
2023-01-09T00:26:39.803Z,100772.23
2023-01-09T00:27:42.865Z,100771.34
2023-01-09T00:30:00.594Z,100768.10
2023-01-09T00:31:03.874Z,100764.20
2023-01-09T00:32:08.227Z,100767.73
2023-01-09T00:33:10.670Z,100768.61
2023-01-09T00:34:12.961Z,100766.88
2023-01-09T00:35:16.522Z,100765.94
2023-01-09T00:36:19.613Z,100768.61
2023-01-09T00:37:22.323Z,100763.27
2023-01-09T00:38:24.718Z,100761.44
2023-01-09T00:39:27.202Z,100763.27
2023-01-09T00:40:29.958Z,100763.27
2023-01-09T00:41:42.725Z,100761.44
2023-01-09T00:42:47.054Z,100761.44
2023-01-09T00:43:54.702Z,100763.27
2023-01-09T00:44:58.844Z,100757.91
2023-01-09T00:46:01.921Z,100754.34
2023-01-09T00:47:10.366Z,100754.34
2023-01-09T00:48:15.890Z,100749.94
2023-01-09T00:49:18.285Z,100748.23
2023-01-09T00:50:24.624Z,100746.49
2023-01-09T00:51:27.275Z,100750.91
2023-01-09T00:52:31.009Z,100740.20
2023-01-09T00:53:33.747Z,100738.37
2023-01-09T00:54:36.509Z,100740.20
2023-01-09T00:55:38.811Z,100742.88
2023-01-09T00:56:41.148Z,100725.94
2023-01-09T00:57:44.337Z,100737.52
2023-01-09T00:58:47.621Z,100734.84
2023-01-09T00:59:50.999Z,100734.84
2023-01-09T01:00:53.729Z,100738.37
2023-01-09T01:01:56.345Z,100724.28
2023-01-09T01:03:00.872Z,100728.61
2023-01-09T01:04:05.944Z,100725.00
2023-01-09T01:05:27.619Z,100723.26
2023-01-09T01:06:48.385Z,100721.55
2023-01-09T01:07:50.727Z,100715.23
2023-01-09T01:08:55.004Z,100717.05
2023-01-09T01:09:58.390Z,100712.64
2023-01-09T01:11:06.343Z,100712.64
2023-01-09T01:12:08.786Z,100715.32
2023-01-09T01:13:11.566Z,100720.67
2023-01-09T01:14:14.130Z,100716.25
2023-01-09T01:15:17.054Z,100716.25
2023-01-09T01:16:20.320Z,100726.95
2023-01-09T01:17:22.840Z,100723.43
2023-01-09T01:18:26.445Z,100724.28
2023-01-09T01:19:29.132Z,100727.84
2023-01-09T01:20:31.712Z,100722.58
2023-01-09T01:21:34.146Z,100712.73
2023-01-09T01:22:37.820Z,100709.97
2023-01-09T01:23:41.350Z,100707.29
2023-01-09T01:24:44.518Z,100703.67
2023-01-09T01:25:47.088Z,100694.80
2023-01-09T01:26:49.611Z,100693.91
2023-01-09T01:27:52.596Z,100700.15
2023-01-09T01:28:55.068Z,100691.23
2023-01-09T01:29:58.344Z,100692.13
2023-01-09T01:31:01.049Z,100685.89
2023-01-09T01:32:05.158Z,100684.09
2023-01-09T01:33:08.354Z,100682.27
2023-01-09T01:34:10.908Z,100681.33
2023-01-09T01:35:13.420Z,100679.59
2023-01-09T01:36:17.289Z,100684.95
2023-01-09T01:37:21.378Z,100684.01
2023-01-09T01:38:25.332Z,100684.86
2023-01-09T01:39:27.698Z,100684.01
2023-01-09T01:40:30.213Z,100678.66
2023-01-09T01:41:32.624Z,100673.30
2023-01-09T01:42:35.533Z,100667.06
2023-01-09T01:43:55.943Z,100662.59
2023-01-09T01:45:09.137Z,100660.86
2023-01-09T01:46:12.958Z,100666.22
2023-01-09T01:47:15.482Z,100663.54
2023-01-09T01:49:38.756Z,100661.22
2023-01-09T01:51:58.920Z,100662.16
2023-01-09T01:53:24.139Z,100658.27
2023-01-09T01:54:26.490Z,100658.27
2023-01-09T01:55:29.501Z,100651.19
2023-01-09T01:56:39.778Z,100657.39
2023-01-09T01:57:42.725Z,100661.04
2023-01-09T01:58:51.713Z,100653.86
2023-01-09T01:59:55.843Z,100656.54
2023-01-09T02:00:58.564Z,100650.34
2023-01-09T02:02:01.449Z,100653.86
2023-01-09T02:03:04.543Z,100658.36
2023-01-09T02:04:08.324Z,100650.34
2023-01-09T02:05:11.491Z,100664.56
2023-01-09T02:06:14.201Z,100658.36
2023-01-09T02:07:17.430Z,100650.34
2023-01-09T02:08:20.223Z,100658.36
2023-01-09T02:09:24.642Z,100655.69
2023-01-09T02:10:27.347Z,100658.36
2023-01-09T02:11:29.658Z,100653.02
2023-01-09T02:12:32.041Z,100649.36
2023-01-09T02:13:35.375Z,100644.90
2023-01-09T02:14:37.715Z,100648.42
2023-01-09T02:17:19.335Z,100640.75
2023-01-09T02:20:20.169Z,100645.25
2023-01-09T02:21:56.016Z,100651.19
2023-01-09T02:23:22.975Z,100643.25
2023-01-09T02:26:29.299Z,100646.45
2023-01-09T02:27:41.195Z,100642.62
2023-01-09T02:28:54.021Z,100639.19
2023-01-09T02:30:06.219Z,100637.45
2023-01-09T02:32:50.032Z,100627.20
2023-01-09T02:33:56.711Z,100629.56
2023-01-09T02:35:25.654Z,100626.98
2023-01-09T02:38:29.230Z,100627.28
2023-01-09T02:39:42.078Z,100629.65
2023-01-09T02:41:06.071Z,100614.54
2023-01-09T02:42:16.575Z,100618.16
2023-01-09T02:43:18.918Z,100619.98
2023-01-09T02:44:25.790Z,100607.54
2023-01-09T02:45:28.241Z,100600.41
2023-01-09T02:46:31.803Z,100614.62
2023-01-09T02:47:42.653Z,100610.22
2023-01-09T02:48:46.605Z,100610.13
2023-01-09T02:49:53.999Z,100602.10
2023-01-09T02:51:31.649Z,100605.66
2023-01-09T02:52:52.932Z,100593.23
2023-01-09T02:55:40.969Z,100595.27
2023-01-09T02:56:57.175Z,100589.61
2023-01-09T02:58:15.455Z,100584.35
2023-01-09T02:59:37.016Z,100581.67
2023-01-09T03:01:02.200Z,100580.80
2023-01-09T03:03:42.271Z,100593.62
2023-01-09T03:04:55.237Z,100587.97
2023-01-09T03:06:07.480Z,100580.88
2023-01-09T03:07:16.662Z,100583.55
2023-01-09T03:08:20.399Z,100587.08
2023-01-09T03:09:24.596Z,100587.97
2023-01-09T03:10:32.260Z,100596.84
2023-01-09T03:11:39.769Z,100591.49
2023-01-09T03:12:44.990Z,100578.12
2023-01-09T03:13:51.953Z,100578.91
2023-01-09T03:14:57.700Z,100588.64
2023-01-09T03:16:01.276Z,100581.59
2023-01-09T03:17:06.586Z,100580.61
2023-01-09T03:18:10.492Z,100587.70
2023-01-09T03:19:17.380Z,100588.55
2023-01-09T03:20:23.443Z,100584.09
2023-01-09T03:21:26.072Z,100587.61
2023-01-09T03:22:30.374Z,100586.67
2023-01-09T03:23:53.239Z,100582.20
2023-01-09T03:24:56.955Z,100589.30
2023-01-09T03:25:59.395Z,100579.45
2023-01-09T03:27:02.884Z,100578.59
2023-01-09T03:29:18.836Z,100573.50
2023-01-09T03:30:23.412Z,100571.42
2023-01-09T03:31:26.055Z,100572.30
2023-01-09T03:32:30.881Z,100573.16
2023-01-09T03:33:33.221Z,100582.91
2023-01-09T03:34:35.532Z,100578.41
2023-01-09T03:35:38.204Z,100578.41
2023-01-09T03:36:41.221Z,100582.83
2023-01-09T03:37:43.657Z,100581.00
2023-01-09T03:38:46.273Z,100577.30
2023-01-09T03:39:48.795Z,100577.30
2023-01-09T03:40:51.535Z,100585.33
2023-01-09T03:41:53.937Z,100578.18
2023-01-09T03:42:57.209Z,100572.74
2023-01-09T03:44:00.471Z,100576.27
2023-01-09T03:45:04.223Z,100570.06
2023-01-09T03:46:07.486Z,100576.27
2023-01-09T03:47:10.060Z,100569.09
2023-01-09T03:48:12.383Z,100578.95
2023-01-09T03:49:14.738Z,100567.30
2023-01-09T03:50:17.815Z,100564.62
2023-01-09T03:51:21.277Z,100573.50
2023-01-09T03:52:23.496Z,100569.89
2023-01-09T03:53:26.898Z,100559.19
2023-01-09T03:54:29.347Z,100568.06
2023-01-09T03:55:31.554Z,100560.03
2023-01-09T03:56:33.883Z,100554.69
2023-01-09T03:57:36.387Z,100556.51
2023-01-09T03:58:38.783Z,100552.01
2023-01-09T03:59:41.703Z,100545.98
2023-01-09T04:02:04.101Z,100559.44
2023-01-09T04:03:07.531Z,100554.69
2023-01-09T04:04:09.933Z,100561.77
2023-01-09T04:05:12.603Z,100560.83
2023-01-09T04:06:17.957Z,100561.77
2023-01-09T04:07:21.062Z,100558.16
2023-01-09T04:08:24.141Z,100548.30
2023-01-09T04:09:26.520Z,100560.83
2023-01-09T04:10:30.377Z,100553.66
2023-01-09T04:11:32.762Z,100557.21
2023-01-09T04:12:35.937Z,100551.86
2023-01-09T04:13:39.037Z,100555.38
2023-01-09T04:14:42.775Z,100562.56
2023-01-09T04:15:45.427Z,100557.21
2023-01-09T04:16:48.505Z,100557.21
2023-01-09T04:17:52.095Z,100568.77
2023-01-09T04:18:54.439Z,100558.06
2023-01-09T04:19:58.571Z,100551.86
2023-01-09T04:21:01.757Z,100558.06
2023-01-09T04:22:04.203Z,100555.38
2023-01-09T04:23:07.378Z,100556.33
2023-01-09T04:24:10.303Z,100552.71
2023-01-09T04:25:12.692Z,100551.86
2023-01-09T04:26:15.802Z,100544.68
2023-01-09T04:27:18.103Z,100542.86
2023-01-09T04:28:21.381Z,100542.86
2023-01-09T04:29:24.624Z,100541.06
2023-01-09T04:30:28.065Z,100541.16
2023-01-09T04:31:30.922Z,100542.01
2023-01-09T04:32:33.378Z,100551.77
2023-01-09T04:33:37.137Z,100549.09
2023-01-09T04:34:39.591Z,100548.13
2023-01-09T04:35:41.986Z,100542.01
2023-01-09T04:36:44.688Z,100532.16
2023-01-09T04:37:47.307Z,100532.16
2023-01-09T04:38:51.100Z,100539.33
2023-01-09T04:39:56.195Z,100538.48
2023-01-09T04:40:58.746Z,100542.86
2023-01-09T04:42:02.117Z,100530.45
2023-01-09T04:43:04.477Z,100521.45
2023-01-09T04:44:06.881Z,100531.30
2023-01-09T04:45:09.936Z,100525.10
2023-01-09T04:46:12.527Z,100523.27
2023-01-09T04:47:16.038Z,100519.75
2023-01-09T04:48:18.519Z,100525.95
2023-01-09T04:49:21.045Z,100522.34
2023-01-09T04:50:24.803Z,100527.69
2023-01-09T04:51:28.206Z,100516.09
2023-01-09T04:52:30.784Z,100522.34
2023-01-09T04:53:33.306Z,100523.19
2023-01-09T04:54:36.196Z,100519.66
2023-01-09T04:55:41.029Z,100527.69
2023-01-09T04:56:44.187Z,100522.34
2023-01-09T04:57:46.667Z,100525.86
2023-01-09T04:58:49.533Z,100521.45
2023-01-09T04:59:52.290Z,100527.69
2023-01-09T05:00:56.185Z,100525.02
2023-01-09T05:01:59.952Z,100526.80
2023-01-09T05:03:02.583Z,100519.66
2023-01-09T05:04:05.393Z,100526.80
2023-01-09T05:05:11.273Z,100525.86
2023-01-09T05:06:13.782Z,100521.45
2023-01-09T05:07:16.319Z,100505.67
2023-01-09T05:08:20.980Z,100505.67
2023-01-09T05:09:23.363Z,100513.42
2023-01-09T05:10:26.242Z,100519.66
2023-01-09T05:11:28.608Z,100523.27
2023-01-09T05:12:31.019Z,100521.45
2023-01-09T05:13:33.484Z,100524.13
2023-01-09T05:14:36.265Z,100531.30
2023-01-09T05:15:39.532Z,100527.69
2023-01-09T05:16:43.342Z,100528.53
2023-01-09T05:17:46.928Z,100529.48
2023-01-09T05:18:49.582Z,100534.83
2023-01-09T05:19:52.211Z,100533.89
2023-01-09T05:20:54.528Z,100528.53
2023-01-09T05:21:57.743Z,100526.71
2023-01-09T05:23:00.125Z,100533.04
2023-01-09T05:24:03.963Z,100522.34
2023-01-09T05:25:07.389Z,100524.03
2023-01-09T05:26:10.285Z,100530.27
2023-01-09T05:27:12.707Z,100529.39
2023-01-09T05:28:15.161Z,100524.92
2023-01-09T05:29:17.595Z,100532.00
2023-01-09T05:30:22.993Z,100527.50
2023-01-09T05:31:26.331Z,100530.94
2023-01-09T05:32:28.927Z,100530.84
2023-01-09T05:33:31.343Z,100516.62
2023-01-09T05:34:34.486Z,100521.03
2023-01-09T05:35:37.861Z,100530.79
2023-01-09T05:36:41.325Z,100526.29
2023-01-09T05:37:44.262Z,100534.22
2023-01-09T05:38:46.550Z,100528.87
2023-01-09T05:39:49.883Z,100521.69
2023-01-09T05:40:52.579Z,100523.42
2023-01-09T05:41:55.088Z,100518.08
2023-01-09T05:42:57.561Z,100517.22
2023-01-09T05:43:59.947Z,100517.22
2023-01-09T05:45:02.746Z,100518.08
2023-01-09T05:46:05.635Z,100507.37
2023-01-09T05:47:08.392Z,100509.20
2023-01-09T05:48:11.142Z,100510.05
2023-01-09T05:49:14.034Z,100510.05
2023-01-09T05:50:17.045Z,100510.93
2023-01-09T05:51:20.612Z,100508.31
2023-01-09T05:52:24.775Z,100512.72
2023-01-09T05:53:27.657Z,100508.25
2023-01-09T05:54:30.027Z,100505.64
2023-01-09T05:55:33.860Z,100502.90
2023-01-09T05:56:36.678Z,100503.84
2023-01-09T05:57:39.449Z,100495.81
2023-01-09T05:58:42.654Z,100502.02
2023-01-09T05:59:45.892Z,100506.52
2023-01-09T06:00:48.946Z,100506.52
2023-01-09T06:01:52.322Z,100505.64
2023-01-09T06:02:55.472Z,100504.69
2023-01-09T06:03:58.888Z,100504.69
2023-01-09T06:05:01.355Z,100508.25
2023-01-09T06:06:04.043Z,100508.25
2023-01-09T06:07:06.444Z,100508.25
2023-01-09T06:08:09.037Z,100508.16
2023-01-09T06:09:11.354Z,100504.59
2023-01-09T06:10:15.132Z,100502.80
2023-01-09T06:11:17.750Z,100507.28
2023-01-09T06:12:20.148Z,100511.69
2023-01-09T06:13:22.935Z,100509.02
2023-01-09T06:14:26.014Z,100508.16
2023-01-09T06:15:29.380Z,100510.84
2023-01-09T06:16:33.027Z,100509.02
2023-01-09T06:17:35.966Z,100510.74
2023-01-09T06:18:39.753Z,100506.33
2023-01-09T06:19:42.227Z,100508.06
2023-01-09T06:20:45.529Z,100500.98
2023-01-09T06:21:49.043Z,100504.51
2023-01-09T06:22:52.631Z,100500.98
2023-01-09T06:23:56.034Z,100503.66
2023-01-09T06:24:58.528Z,100509.95
2023-01-09T06:26:02.292Z,100507.28
2023-01-09T06:27:06.217Z,100499.25
2023-01-09T06:28:08.952Z,100512.63
2023-01-09T06:29:11.471Z,100505.58
2023-01-09T06:30:14.148Z,100502.90
2023-01-09T06:31:17.705Z,100505.58
2023-01-09T06:32:20.671Z,100505.58
2023-01-09T06:33:23.639Z,100503.84
2023-01-09T06:34:26.690Z,100505.58
2023-01-09T06:35:31.183Z,100502.90
2023-01-09T06:36:34.312Z,100504.69
2023-01-09T06:37:37.808Z,100501.16
2023-01-09T06:38:40.831Z,100496.66
2023-01-09T06:39:43.486Z,100498.48
2023-01-09T06:40:46.487Z,100487.78
2023-01-09T06:41:48.925Z,100495.81
2023-01-09T06:42:51.908Z,100492.25
2023-01-09T06:43:54.530Z,100487.78
2023-01-09T06:44:56.912Z,100487.78
2023-01-09T06:46:00.337Z,100493.98
2023-01-09T06:47:04.458Z,100489.58
2023-01-09T06:48:07.769Z,100501.16
2023-01-09T06:49:10.491Z,100502.02
2023-01-09T06:50:13.062Z,100499.34
2023-01-09T06:51:15.805Z,100503.84
2023-01-09T06:52:19.299Z,100492.20
2023-01-09T06:53:21.810Z,100497.61
2023-01-09T06:54:24.453Z,100494.08
2023-01-09T06:55:30.168Z,100491.41
2023-01-09T06:56:33.329Z,100490.46
2023-01-09T06:57:36.870Z,100492.25
2023-01-09T06:58:39.335Z,100487.78
2023-01-09T06:59:42.248Z,100490.46
2023-01-09T07:00:45.080Z,100492.25
2023-01-09T07:01:47.476Z,100487.78
2023-01-09T07:02:49.985Z,100484.22
2023-01-09T07:03:52.391Z,100482.43
2023-01-09T07:04:54.998Z,100487.78
2023-01-09T07:05:57.355Z,100483.28
2023-01-09T07:06:59.777Z,100485.11
2023-01-09T07:08:02.308Z,100477.92
2023-01-09T07:09:07.016Z,100480.70
2023-01-09T07:10:12.475Z,100481.55
2023-01-09T07:11:15.422Z,100478.88
2023-01-09T07:12:18.398Z,100480.70
2023-01-09T07:13:20.742Z,100479.75
2023-01-09T07:14:23.079Z,100477.08
2023-01-09T07:15:27.431Z,100482.43
2023-01-09T07:16:31.257Z,100487.78
2023-01-09T07:17:34.468Z,100473.52
2023-01-09T07:18:37.796Z,100471.73
2023-01-09T07:19:40.651Z,100478.02
2023-01-09T07:20:43.318Z,100475.34
2023-01-09T07:21:47.835Z,100477.92
2023-01-09T07:22:51.513Z,100483.28
2023-01-09T07:23:54.060Z,100485.11
2023-01-09T07:24:56.355Z,100480.61
2023-01-09T07:25:59.157Z,100471.73
2023-01-09T07:27:02.036Z,100474.41
2023-01-09T07:28:06.625Z,100470.84
2023-01-09T07:29:08.972Z,100478.81
2023-01-09T07:30:14.455Z,100471.73
2023-01-09T07:31:16.736Z,100482.43
2023-01-09T07:32:19.282Z,100481.48
2023-01-09T07:33:21.586Z,100478.81
2023-01-09T07:34:24.726Z,100479.75
2023-01-09T07:35:27.246Z,100482.43
2023-01-09T07:36:29.885Z,100478.88
2023-01-09T07:37:32.186Z,100479.75
2023-01-09T07:38:37.469Z,100478.02
2023-01-09T07:39:40.715Z,100477.08
2023-01-09T07:40:43.255Z,100483.28
2023-01-09T07:41:46.644Z,100483.28
2023-01-09T07:42:53.440Z,100482.43
2023-01-09T07:43:56.631Z,100485.95
2023-01-09T07:44:59.308Z,100485.11
2023-01-09T07:46:01.720Z,100485.95
2023-01-09T07:47:04.559Z,100487.78
2023-01-09T07:48:07.296Z,100487.78
2023-01-09T07:49:10.687Z,100484.22
2023-01-09T07:50:14.591Z,100482.43
2023-01-09T07:51:17.720Z,100489.52
2023-01-09T07:52:20.207Z,100478.88
2023-01-09T07:53:22.913Z,100486.91
2023-01-09T07:54:26.462Z,100487.78
2023-01-09T07:55:29.195Z,100485.11
2023-01-09T07:56:32.809Z,100490.55
2023-01-09T07:57:36.588Z,100489.58
2023-01-09T07:58:40.360Z,100488.73
2023-01-09T07:59:43.137Z,100492.25
2023-01-09T08:00:45.703Z,100498.48
2023-01-09T08:01:50.099Z,100492.25
2023-01-09T08:02:54.130Z,100493.14
2023-01-09T08:03:56.702Z,100473.80
2023-01-09T08:04:59.144Z,100473.80
2023-01-09T08:06:02.596Z,100486.91
2023-01-09T08:07:05.352Z,100481.55
2023-01-09T08:08:07.783Z,100471.73
2023-01-09T08:09:10.984Z,100475.25
2023-01-09T08:10:16.392Z,100472.67
2023-01-09T08:11:18.872Z,100467.22
2023-01-09T08:12:21.300Z,100461.02
2023-01-09T08:13:24.494Z,100461.02
2023-01-09T08:14:27.395Z,100458.34
2023-01-09T08:15:31.575Z,100448.48
2023-01-09T08:16:34.129Z,100451.16
2023-01-09T08:17:36.555Z,100455.67
2023-01-09T08:18:38.909Z,100452.99
2023-01-09T08:19:44.468Z,100458.34
2023-01-09T08:22:00.605Z,100462.09
2023-01-09T08:23:03.425Z,100460.92
2023-01-09T08:24:06.540Z,100465.43
2023-01-09T08:25:12.210Z,100463.70
2023-01-09T08:26:15.042Z,100459.19
2023-01-09T08:27:18.598Z,100465.43
2023-01-09T08:28:21.107Z,100465.43
2023-01-09T08:29:23.413Z,100464.45
2023-01-09T08:30:28.032Z,100456.52
2023-01-09T08:31:30.419Z,100461.87
2023-01-09T08:32:32.763Z,100463.60
2023-01-09T08:33:35.080Z,100453.84
2023-01-09T08:34:37.544Z,100467.13
2023-01-09T08:35:40.127Z,100463.60
2023-01-09T08:36:44.271Z,100460.08
2023-01-09T08:37:47.069Z,100455.58
2023-01-09T08:38:49.459Z,100452.05
2023-01-09T08:39:53.689Z,100448.39
2023-01-09T08:40:56.330Z,100449.28
2023-01-09T08:42:17.450Z,100448.39
2023-01-09T08:43:38.755Z,100452.80
2023-01-09T08:45:01.022Z,100449.38
2023-01-09T08:46:22.503Z,100447.64
2023-01-09T08:47:25.123Z,100442.38
2023-01-09T08:48:28.460Z,100446.75
2023-01-09T08:49:31.606Z,100447.83
2023-01-09T08:50:34.150Z,100440.73
2023-01-09T08:51:36.558Z,100437.18
2023-01-09T08:52:39.400Z,100440.73
2023-01-09T08:53:41.863Z,100438.91
2023-01-09T08:54:44.275Z,100436.33
2023-01-09T08:55:47.776Z,100435.39
2023-01-09T08:56:50.390Z,100438.06
2023-01-09T08:57:54.470Z,100435.39
2023-01-09T08:58:56.845Z,100425.62
2023-01-09T09:00:01.328Z,100433.56
2023-01-09T09:01:07.447Z,100422.00
2023-01-09T09:02:10.245Z,100427.27
2023-01-09T09:03:13.521Z,100428.11
2023-01-09T09:04:16.029Z,100422.77
2023-01-09T09:05:19.765Z,100422.77
2023-01-09T09:06:22.514Z,100413.88
2023-01-09T09:07:28.107Z,100418.30
2023-01-09T09:08:30.661Z,100417.41
2023-01-09T09:09:33.546Z,100411.96
2023-01-09T09:10:36.337Z,100412.94
2023-01-09T09:11:39.804Z,100414.73
2023-01-09T09:12:42.889Z,100406.05
2023-01-09T09:13:46.070Z,100406.05
2023-01-09T09:15:07.010Z,100408.44
2023-01-09T09:16:11.063Z,100405.77
2023-01-09T09:17:14.163Z,100404.91
2023-01-09T09:18:16.864Z,100401.26
2023-01-09T09:19:19.401Z,100408.44
2023-01-09T09:20:23.722Z,100404.91
2023-01-09T09:21:26.246Z,100401.35
2023-01-09T09:22:28.763Z,100400.41
2023-01-09T09:23:31.200Z,100402.23
2023-01-09T09:24:33.619Z,100396.87
2023-01-09T09:25:37.760Z,100391.53
2023-01-09T09:26:40.472Z,100394.20
2023-01-09T09:27:44.111Z,100402.23
2023-01-09T09:28:48.315Z,100402.23
2023-01-09T09:29:51.512Z,100395.05
2023-01-09T09:30:54.711Z,100395.91
2023-01-09T09:32:00.717Z,100398.58
2023-01-09T09:33:04.153Z,100402.23
2023-01-09T09:34:07.419Z,100397.73
2023-01-09T09:35:10.095Z,100399.47
2023-01-09T09:36:14.426Z,100402.23
2023-01-09T09:37:16.882Z,100399.47
2023-01-09T09:38:20.008Z,100402.14
2023-01-09T09:39:23.411Z,100403.88
2023-01-09T09:41:04.245Z,100390.49
2023-01-09T09:42:49.172Z,100397.64
2023-01-09T09:44:21.157Z,100397.64
2023-01-09T09:45:39.025Z,100394.20
2023-01-09T09:47:06.491Z,100394.30
2023-01-09T09:48:15.703Z,100389.11
2023-01-09T09:51:03.795Z,100385.14
2023-01-09T09:53:47.058Z,100381.67
2023-01-09T09:54:52.857Z,100383.28
2023-01-09T09:55:57.023Z,100383.34
2023-01-09T09:57:04.493Z,100388.69
2023-01-09T09:58:14.527Z,100389.58
2023-01-09T09:59:19.262Z,100385.08
2023-01-09T10:00:23.431Z,100382.40
2023-01-09T10:01:40.422Z,100387.75
2023-01-09T10:04:27.642Z,100387.03
2023-01-09T10:05:34.211Z,100384.03
2023-01-09T10:06:45.478Z,100393.01
2023-01-09T10:07:49.285Z,100386.80
2023-01-09T10:09:07.939Z,100377.93
2023-01-09T10:11:29.432Z,100381.58
2023-01-09T10:12:37.316Z,100382.30
2023-01-09T10:14:00.376Z,100377.84
2023-01-09T14:15:44.994Z,100291.41
2023-01-09T14:16:47.957Z,100296.23
2023-01-09T14:19:25.210Z,100298.17
2023-01-09T14:21:57.732Z,100297.71
2023-01-09T14:24:07.319Z,100304.09
2023-01-09T14:25:17.582Z,100297.30
2023-01-09T14:26:23.919Z,100300.20
2023-01-09T14:27:57.333Z,100297.76
2023-01-09T14:29:32.613Z,100296.28
2023-01-09T14:31:51.223Z,100289.55
2023-01-09T14:33:05.618Z,100288.92
2023-01-09T14:34:31.726Z,100285.77
2023-01-09T14:35:52.935Z,100285.28
2023-01-09T14:36:58.941Z,100281.99
2023-01-09T14:38:04.442Z,100288.66
2023-01-09T14:39:06.807Z,100287.36
2023-01-09T14:40:21.474Z,100287.98
2023-01-09T14:41:51.749Z,100280.55
2023-01-09T14:42:55.741Z,100284.59
2023-01-09T14:44:03.406Z,100275.33
2023-01-09T14:45:08.462Z,100279.55
2023-01-09T14:46:14.306Z,100284.63
2023-01-09T14:47:44.283Z,100279.89
2023-01-09T14:48:59.570Z,100280.55
2023-01-09T14:50:35.809Z,100290.91
2023-01-09T14:51:38.502Z,100291.58
2023-01-09T14:54:06.341Z,100295.78
2023-01-09T14:55:21.879Z,100296.30
2023-01-09T14:56:27.997Z,100302.44
2023-01-09T14:58:48.785Z,100291.70
2023-01-09T15:01:14.632Z,100294.97
2023-01-09T15:02:22.710Z,100303.42
2023-01-09T15:03:25.985Z,100301.55
2023-01-09T15:04:38.836Z,100298.68
2023-01-09T15:05:41.628Z,100310.12
2023-01-09T15:06:44.180Z,100306.42
2023-01-09T15:09:24.175Z,100305.53
2023-01-09T15:10:31.849Z,100307.87
2023-01-09T15:11:35.523Z,100303.40
2023-01-09T15:12:38.015Z,100302.42
2023-01-09T15:13:48.510Z,100300.53
2023-01-09T15:14:52.991Z,100304.06
2023-01-09T15:15:55.945Z,100307.55
2023-01-09T15:16:58.607Z,100300.38
2023-01-09T15:18:04.596Z,100306.52
2023-01-09T15:19:07.880Z,100305.53
2023-01-09T15:20:19.866Z,100304.59
2023-01-09T15:21:25.919Z,100307.17
2023-01-09T15:22:31.259Z,100306.23
2023-01-09T15:23:35.719Z,100309.75
2023-01-09T15:24:38.240Z,100306.98
2023-01-09T15:25:41.703Z,100305.19
2023-01-09T15:26:45.421Z,100302.52
2023-01-09T15:27:53.360Z,100302.41
2023-01-09T15:29:09.542Z,100302.41
2023-01-09T15:31:27.301Z,100287.42
2023-01-09T15:32:30.210Z,100296.97
2023-01-09T15:33:32.636Z,100293.45
2023-01-09T15:34:35.339Z,100293.45
2023-01-09T15:35:44.542Z,100295.14
2023-01-09T15:36:49.785Z,100297.81
2023-01-09T15:37:53.354Z,100293.34
2023-01-09T15:38:56.057Z,100301.28
2023-01-09T15:39:59.641Z,100287.90
2023-01-09T15:41:05.922Z,100291.42
2023-01-09T15:42:30.581Z,100288.75
2023-01-09T15:43:37.016Z,100282.55
2023-01-09T15:44:42.702Z,100278.92
2023-01-09T15:45:45.522Z,100290.48
2023-01-09T15:46:49.445Z,100289.62
2023-01-09T15:47:52.149Z,100285.13
2023-01-09T15:48:55.268Z,100279.78
2023-01-09T15:50:00.070Z,100279.78
2023-01-09T15:51:14.018Z,100280.63
2023-01-09T15:52:17.819Z,100280.63
2023-01-09T15:53:22.019Z,100269.08
2023-01-09T15:54:33.067Z,100275.27
2023-01-09T15:55:38.038Z,100277.09
2023-01-09T15:56:42.480Z,100277.09
2023-01-09T15:57:51.636Z,100279.68
2023-01-09T15:58:54.294Z,100271.66
2023-01-09T15:59:58.621Z,100273.48
2023-01-09T16:01:05.601Z,100278.83
2023-01-09T16:02:27.925Z,100283.30
2023-01-09T16:03:30.321Z,100282.36
2023-01-09T16:04:33.439Z,100276.16
2023-01-09T16:05:49.241Z,100277.00
2023-01-09T16:06:52.347Z,100273.48
2023-01-09T16:07:54.734Z,100270.80
2023-01-09T16:08:58.488Z,100273.48
2023-01-09T16:10:01.164Z,100281.51
2023-01-09T16:12:24.118Z,100267.45
2023-01-09T16:13:27.965Z,100279.68
2023-01-09T16:14:34.929Z,100274.33
2023-01-09T16:15:38.450Z,100274.33
2023-01-09T16:16:41.817Z,100277.00
2023-01-09T16:19:32.853Z,100287.91
2023-01-09T16:20:36.210Z,100277.85
2023-01-09T16:21:39.185Z,100282.36
2023-01-09T16:24:23.251Z,100278.83
2023-01-09T16:25:36.398Z,100281.51
2023-01-09T16:26:40.547Z,100294.79
2023-01-09T16:27:43.966Z,100278.73
2023-01-09T16:28:47.652Z,100271.66
2023-01-09T16:29:55.264Z,100273.48
2023-01-09T16:31:00.364Z,100275.17
2023-01-09T16:32:04.466Z,100271.66
2023-01-09T16:33:10.846Z,100274.33
2023-01-09T16:34:13.305Z,100274.33
2023-01-09T16:35:17.717Z,100266.30
2023-01-09T16:36:23.371Z,100265.36
2023-01-09T16:37:26.347Z,100268.03
2023-01-09T16:38:30.104Z,100276.06
2023-01-09T16:39:32.586Z,100268.98
2023-01-09T16:40:35.553Z,100273.38
2023-01-09T16:41:56.551Z,100273.38
2023-01-09T16:42:59.828Z,100271.55
2023-01-09T16:44:04.938Z,100272.50
2023-01-09T16:45:09.635Z,100273.38
2023-01-09T16:47:26.343Z,100266.40
2023-01-09T16:48:29.218Z,100273.38
2023-01-09T16:49:32.772Z,100269.83
2023-01-09T16:50:36.200Z,100268.03
2023-01-09T16:51:38.704Z,100266.30
2023-01-09T16:53:57.045Z,100253.90
2023-01-09T16:54:59.538Z,100251.88
2023-01-09T16:56:02.201Z,100258.17
2023-01-09T16:57:04.595Z,100269.76
2023-01-09T16:59:29.296Z,100274.33
2023-01-09T17:00:34.081Z,100276.81
2023-01-09T17:01:37.657Z,100271.45
2023-01-09T17:02:40.719Z,100275.95
2023-01-09T17:03:44.266Z,100279.48
2023-01-09T17:04:48.827Z,100280.36
2023-01-09T17:05:52.832Z,100278.54
2023-01-09T17:06:55.761Z,100284.73
2023-01-09T17:07:58.248Z,100277.59
2023-01-09T17:09:00.578Z,100282.95
2023-01-09T17:10:04.823Z,100277.59
2023-01-09T17:11:10.464Z,100274.92